Terminal Aerodrome Forecast
Issued by NWS Lake Charles, LA

Home | Current Version | Previous Version | Text Only | Print | Product List | Glossary On
Versions: 1 2 3 4 5 6 7 8 9 10 11 12 13 14 15 16 17 18 19 20
000
FTUS44 KLCH 251143
TAFARA
TAF
KARA 251143Z 2512/2612 17005KT 4SM BR FEW008 SCT015 OVC250
      TEMPO 2514/2518 3SM -SHRA OVC015
     FM251800 22012G18KT P6SM BKN025
     FM260100 VRB03KT 4SM BR OVC015=

USA.gov is the U.S. government's official web portal to all federal, state and local government web resources and services.